Vanderhoof, Canada
Current Conditions -  °F | °C
As of 1:00 AM on Wednesday 22 Oct 2014 (Local Time) from CYXS Reporting Station
Overcast Overcast  
Wind Chill: 54°   Ceiling: 7500
Heat Index: 54°   Visibility: 9mi
Dew Point: 34°   Wind: 15mph
Humidity: 47%   Direction: 170°S
Pressure: 29.43"   Gusts: 23mph
Location:  54.02°N, 124.02°W
Report Text: CYXS 220800Z AUTO 17013G20KT 9SM OVC075 12/01 A2943 RMK SLP974 DENSITY ALT 3000FT
Loading
Personal Weather Stations






























Interactive Weather Map
Tropical Storm Tracking
New forecast layout! Learn more

10-Day Weather Forecast

Advertisements
Track Severe Weather on mobile